SBOSBO WAW / EPWA
Speedbird OnlineSpeedbird Online WAW / EPWA

Warsaw Chopin Airport
10:20 15°C

Location Warsaw, Poland
Latitude: 52.1656990051
Longitude: 20.967100143399996
Web Airport Website | Wikipedia
Altitude 110 Meter / 362 Feet
Distance 1,429 KM / 888 Miles
from London.
Time Zone UTC +2 hours (Europe/Warsaw)
Codes IATA: WAW
ICAO: EPWA
Currency £1 equals PLN 5.52
Runways
RunwayLength (m)Surface
112800Concrete
153690Concrete
292800Concrete
333690Concrete
Radio
TypeDescriptionFrequency
APPWARSZAWA APP128.8
ATISATIS120.45
CLDCLNC DEL121.6
DIRWARSZAWA DIR129.375
GNDGND121.9
TWRTWR118.3
Live ATC
METAR EPWA 060800Z 25010KT 9999 BKN036 15/11 Q1022 NOSIG
TAF TAF EPWA 060530Z 0606/0706 20005KT CAVOK BECMG 0606/0609 26010KT PROB40 TEMPO 0610/0615 BKN030TCU BECMG 0617/0619 22004KT
Weather As Of 06 Oct 2022 10:20
Description Broken clouds
Wind 19 km/h from West (250°)
Cloud Cover 75%
Precipitation Rain: none, Snow: none
Sunrise 06:44
Sunset 18:03
Lounges Bolero Lounge , Main Terminal
Fantazja Executive Lounge, Main Terminal
Preludium Lounge, Terminal A
Rotations During the last 90 days there were
220 flights from LHR
219 flights to LHR


© 2017-2022 Speedbird Online